sensor_id;sensor_type;location;lat;lon;timestamp;temperature;humidity
6738;DHT22;3406;49.902;8.596;2023-07-13T00:02:24;21.20;49.60
6738;DHT22;3406;49.902;8.596;2023-07-13T00:04:52;21.20;49.80
6738;DHT22;3406;49.902;8.596;2023-07-13T00:07:19;21.10;49.80
6738;DHT22;3406;49.902;8.596;2023-07-13T00:09:47;21.10;49.80
6738;DHT22;3406;49.902;8.596;2023-07-13T00:12:25;21.10;49.90
6738;DHT22;3406;49.902;8.596;2023-07-13T00:14:52;21.00;50.00
6738;DHT22;3406;49.902;8.596;2023-07-13T00:17:19;21.00;50.00
6738;DHT22;3406;49.902;8.596;2023-07-13T00:19:46;21.00;50.20
6738;DHT22;3406;49.902;8.596;2023-07-13T00:22:13;21.00;50.20
6738;DHT22;3406;49.902;8.596;2023-07-13T00:24:40;20.90;50.20
6738;DHT22;3406;49.902;8.596;2023-07-13T00:27:08;20.90;50.40
6738;DHT22;3406;49.902;8.596;2023-07-13T00:29:35;20.90;50.50
6738;DHT22;3406;49.902;8.596;2023-07-13T00:32:02;20.80;50.50
6738;DHT22;3406;49.902;8.596;2023-07-13T00:34:29;20.80;50.60
6738;DHT22;3406;49.902;8.596;2023-07-13T00:36:56;20.80;50.80
6738;DHT22;3406;49.902;8.596;2023-07-13T00:39:23;20.70;50.90
6738;DHT22;3406;49.902;8.596;2023-07-13T00:41:50;20.70;51.10
6738;DHT22;3406;49.902;8.596;2023-07-13T00:44:19;20.60;51.10
6738;DHT22;3406;49.902;8.596;2023-07-13T00:46:46;20.60;51.30
6738;DHT22;3406;49.902;8.596;2023-07-13T00:49:15;20.50;51.40
6738;DHT22;3406;49.902;8.596;2023-07-13T00:51:44;20.50;51.60
6738;DHT22;3406;49.902;8.596;2023-07-13T00:54:15;20.40;51.60
6738;DHT22;3406;49.902;8.596;2023-07-13T00:56:44;20.40;51.70
6738;DHT22;3406;49.902;8.596;2023-07-13T00:59:12;20.30;51.80
6738;DHT22;3406;49.902;8.596;2023-07-13T01:01:41;20.30;51.80
6738;DHT22;3406;49.902;8.596;2023-07-13T01:04:08;20.20;51.90
6738;DHT22;3406;49.902;8.596;2023-07-13T01:06:35;20.20;52.10
6738;DHT22;3406;49.902;8.596;2023-07-13T01:09:03;20.10;52.20
6738;DHT22;3406;49.902;8.596;2023-07-13T01:11:30;20.10;52.30
6738;DHT22;3406;49.902;8.596;2023-07-13T01:13:57;20.00;52.30
6738;DHT22;3406;49.902;8.596;2023-07-13T01:16:26;20.00;52.50
6738;DHT22;3406;49.902;8.596;2023-07-13T01:18:54;19.90;52.60
6738;DHT22;3406;49.902;8.596;2023-07-13T01:21:25;19.80;52.70
6738;DHT22;3406;49.902;8.596;2023-07-13T01:23:52;19.70;52.90
6738;DHT22;3406;49.902;8.596;2023-07-13T01:26:19;19.70;53.00
6738;DHT22;3406;49.902;8.596;2023-07-13T01:28:45;19.60;53.10
6738;DHT22;3406;49.902;8.596;2023-07-13T01:31:12;19.60;53.20
6738;DHT22;3406;49.902;8.596;2023-07-13T01:33:40;19.50;53.30
6738;DHT22;3406;49.902;8.596;2023-07-13T01:36:07;19.50;53.50
6738;DHT22;3406;49.902;8.596;2023-07-13T01:38:36;19.50;53.70
6738;DHT22;3406;49.902;8.596;2023-07-13T01:41:03;19.40;53.70
6738;DHT22;3406;49.902;8.596;2023-07-13T01:43:29;19.30;53.80
6738;DHT22;3406;49.902;8.596;2023-07-13T01:45:56;19.40;54.00
6738;DHT22;3406;49.902;8.596;2023-07-13T01:48:23;19.30;54.10
6738;DHT22;3406;49.902;8.596;2023-07-13T01:50:49;19.30;54.10
6738;DHT22;3406;49.902;8.596;2023-07-13T01:53:16;19.30;54.20
6738;DHT22;3406;49.902;8.596;2023-07-13T01:55:44;19.20;54.30
6738;DHT22;3406;49.902;8.596;2023-07-13T01:58:11;19.20;54.40
6738;DHT22;3406;49.902;8.596;2023-07-13T02:00:37;19.20;54.50
6738;DHT22;3406;49.902;8.596;2023-07-13T02:03:04;19.20;54.60
6738;DHT22;3406;49.902;8.596;2023-07-13T02:05:30;19.10;54.60
6738;DHT22;3406;49.902;8.596;2023-07-13T02:07:57;19.10;54.80
6738;DHT22;3406;49.902;8.596;2023-07-13T02:10:24;19.00;54.80
6738;DHT22;3406;49.902;8.596;2023-07-13T02:12:52;19.00;55.00
6738;DHT22;3406;49.902;8.596;2023-07-13T02:15:19;19.00;55.10
6738;DHT22;3406;49.902;8.596;2023-07-13T02:17:46;18.90;55.10
6738;DHT22;3406;49.902;8.596;2023-07-13T02:20:13;18.90;55.20
6738;DHT22;3406;49.902;8.596;2023-07-13T02:22:39;18.80;55.30
6738;DHT22;3406;49.902;8.596;2023-07-13T02:25:06;18.80;55.30
6738;DHT22;3406;49.902;8.596;2023-07-13T02:27:33;18.80;55.50
6738;DHT22;3406;49.902;8.596;2023-07-13T02:30:01;18.80;55.50
6738;DHT22;3406;49.902;8.596;2023-07-13T02:32:28;18.80;55.50
6738;DHT22;3406;49.902;8.596;2023-07-13T02:34:55;18.80;55.60
6738;DHT22;3406;49.902;8.596;2023-07-13T02:37:21;18.80;55.80
6738;DHT22;3406;49.902;8.596;2023-07-13T02:39:48;18.70;55.80
6738;DHT22;3406;49.902;8.596;2023-07-13T02:42:15;18.70;56.00
6738;DHT22;3406;49.902;8.596;2023-07-13T02:44:41;18.60;56.00
6738;DHT22;3406;49.902;8.596;2023-07-13T02:47:09;18.60;56.00
6738;DHT22;3406;49.902;8.596;2023-07-13T02:49:36;18.60;56.20
6738;DHT22;3406;49.902;8.596;2023-07-13T02:52:04;18.50;56.20
6738;DHT22;3406;49.902;8.596;2023-07-13T02:54:31;18.50;56.30
6738;DHT22;3406;49.902;8.596;2023-07-13T02:56:57;18.50;56.40
6738;DHT22;3406;49.902;8.596;2023-07-13T02:59:24;18.40;56.40
6738;DHT22;3406;49.902;8.596;2023-07-13T03:01:51;18.40;56.60
6738;DHT22;3406;49.902;8.596;2023-07-13T03:04:18;18.40;56.80
6738;DHT22;3406;49.902;8.596;2023-07-13T03:06:45;18.30;56.80
6738;DHT22;3406;49.902;8.596;2023-07-13T03:09:12;18.20;56.90
6738;DHT22;3406;49.902;8.596;2023-07-13T03:11:39;18.20;57.00
6738;DHT22;3406;49.902;8.596;2023-07-13T03:14:06;18.20;57.10
6738;DHT22;3406;49.902;8.596;2023-07-13T03:16:33;18.20;57.20
6738;DHT22;3406;49.902;8.596;2023-07-13T03:19:00;18.10;57.20
6738;DHT22;3406;49.902;8.596;2023-07-13T03:21:28;18.10;57.30
6738;DHT22;3406;49.902;8.596;2023-07-13T03:23:54;18.10;57.40
6738;DHT22;3406;49.902;8.596;2023-07-13T03:26:21;18.00;57.30
6738;DHT22;3406;49.902;8.596;2023-07-13T03:28:48;18.00;57.50
6738;DHT22;3406;49.902;8.596;2023-07-13T03:31:17;17.90;57.50
6738;DHT22;3406;49.902;8.596;2023-07-13T03:33:44;17.90;57.60
6738;DHT22;3406;49.902;8.596;2023-07-13T03:36:13;17.90;57.70
6738;DHT22;3406;49.902;8.596;2023-07-13T03:38:43;17.90;57.80
6738;DHT22;3406;49.902;8.596;2023-07-13T03:41:09;17.80;57.80
6738;DHT22;3406;49.902;8.596;2023-07-13T03:43:36;17.80;57.80
6738;DHT22;3406;49.902;8.596;2023-07-13T03:46:02;17.80;57.90
6738;DHT22;3406;49.902;8.596;2023-07-13T03:48:29;17.70;58.00
6738;DHT22;3406;49.902;8.596;2023-07-13T03:50:56;17.70;58.00
6738;DHT22;3406;49.902;8.596;2023-07-13T03:53:22;17.70;58.10
6738;DHT22;3406;49.902;8.596;2023-07-13T03:55:50;17.70;58.20
6738;DHT22;3406;49.902;8.596;2023-07-13T03:58:28;17.70;58.30
6738;DHT22;3406;49.902;8.596;2023-07-13T04:00:56;17.70;58.30
6738;DHT22;3406;49.902;8.596;2023-07-13T04:03:23;17.70;58.30
6738;DHT22;3406;49.902;8.596;2023-07-13T04:05:49;17.60;58.40
6738;DHT22;3406;49.902;8.596;2023-07-13T04:08:16;17.60;58.50
6738;DHT22;3406;49.902;8.596;2023-07-13T04:10:43;17.60;58.60
6738;DHT22;3406;49.902;8.596;2023-07-13T04:13:11;17.60;58.70
6738;DHT22;3406;49.902;8.596;2023-07-13T04:15:38;17.60;58.70
6738;DHT22;3406;49.902;8.596;2023-07-13T04:18:05;17.60;58.70
6738;DHT22;3406;49.902;8.596;2023-07-13T04:20:32;17.60;58.70
6738;DHT22;3406;49.902;8.596;2023-07-13T04:22:58;17.70;58.70
6738;DHT22;3406;49.902;8.596;2023-07-13T04:25:26;17.70;58.80
6738;DHT22;3406;49.902;8.596;2023-07-13T04:27:52;17.70;58.80
6738;DHT22;3406;49.902;8.596;2023-07-13T04:30:21;17.70;58.90
6738;DHT22;3406;49.902;8.596;2023-07-13T04:32:48;17.70;58.90
6738;DHT22;3406;49.902;8.596;2023-07-13T04:35:15;17.70;58.80
6738;DHT22;3406;49.902;8.596;2023-07-13T04:37:41;17.80;58.80
6738;DHT22;3406;49.902;8.596;2023-07-13T04:40:09;17.80;58.70
6738;DHT22;3406;49.902;8.596;2023-07-13T04:42:37;17.90;58.70
6738;DHT22;3406;49.902;8.596;2023-07-13T04:45:05;17.90;58.60
6738;DHT22;3406;49.902;8.596;2023-07-13T04:47:33;18.00;58.60
6738;DHT22;3406;49.902;8.596;2023-07-13T04:50:00;18.00;58.60
6738;DHT22;3406;49.902;8.596;2023-07-13T04:52:26;18.00;58.50
6738;DHT22;3406;49.902;8.596;2023-07-13T04:54:53;18.00;58.60
6738;DHT22;3406;49.902;8.596;2023-07-13T04:57:20;18.00;58.70
6738;DHT22;3406;49.902;8.596;2023-07-13T04:59:46;18.00;58.80
6738;DHT22;3406;49.902;8.596;2023-07-13T05:02:13;18.00;58.90
6738;DHT22;3406;49.902;8.596;2023-07-13T05:04:41;18.00;58.80
6738;DHT22;3406;49.902;8.596;2023-07-13T05:07:08;18.10;58.90
6738;DHT22;3406;49.902;8.596;2023-07-13T05:09:34;18.10;58.90
6738;DHT22;3406;49.902;8.596;2023-07-13T05:12:01;18.20;58.90
6738;DHT22;3406;49.902;8.596;2023-07-13T05:14:28;18.20;58.90
6738;DHT22;3406;49.902;8.596;2023-07-13T05:16:54;18.30;58.90
6738;DHT22;3406;49.902;8.596;2023-07-13T05:19:22;18.30;58.80
6738;DHT22;3406;49.902;8.596;2023-07-13T05:21:50;18.40;58.80
6738;DHT22;3406;49.902;8.596;2023-07-13T05:24:17;18.40;58.80
6738;DHT22;3406;49.902;8.596;2023-07-13T05:26:44;18.60;58.90
6738;DHT22;3406;49.902;8.596;2023-07-13T05:29:11;18.60;58.80
6738;DHT22;3406;49.902;8.596;2023-07-13T05:31:37;18.70;58.80
6738;DHT22;3406;49.902;8.596;2023-07-13T05:34:04;18.80;58.70
6738;DHT22;3406;49.902;8.596;2023-07-13T05:36:31;19.00;58.50
6738;DHT22;3406;49.902;8.596;2023-07-13T05:38:59;19.10;58.50
6738;DHT22;3406;49.902;8.596;2023-07-13T05:41:25;19.20;58.30
6738;DHT22;3406;49.902;8.596;2023-07-13T05:43:52;19.30;58.10
6738;DHT22;3406;49.902;8.596;2023-07-13T05:46:18;19.50;58.00
6738;DHT22;3406;49.902;8.596;2023-07-13T05:48:45;19.60;57.80
6738;DHT22;3406;49.902;8.596;2023-07-13T05:51:12;19.70;57.60
6738;DHT22;3406;49.902;8.596;2023-07-13T05:53:39;19.80;57.40
6738;DHT22;3406;49.902;8.596;2023-07-13T05:56:07;19.90;57.30
6738;DHT22;3406;49.902;8.596;2023-07-13T05:58:33;20.10;57.20
6738;DHT22;3406;49.902;8.596;2023-07-13T06:01:02;20.20;56.90
6738;DHT22;3406;49.902;8.596;2023-07-13T06:03:29;20.40;56.70
6738;DHT22;3406;49.902;8.596;2023-07-13T06:05:56;20.50;56.30
6738;DHT22;3406;49.902;8.596;2023-07-13T06:08:23;20.70;56.00
6738;DHT22;3406;49.902;8.596;2023-07-13T06:10:49;20.90;55.40
6738;DHT22;3406;49.902;8.596;2023-07-13T06:13:17;20.90;54.80
6738;DHT22;3406;49.902;8.596;2023-07-13T06:15:48;21.00;54.50
6738;DHT22;3406;49.902;8.596;2023-07-13T06:18:15;21.10;54.10
6738;DHT22;3406;49.902;8.596;2023-07-13T06:20:41;21.20;53.60
6738;DHT22;3406;49.902;8.596;2023-07-13T06:23:08;21.20;53.40
6738;DHT22;3406;49.902;8.596;2023-07-13T06:25:35;21.30;53.50
6738;DHT22;3406;49.902;8.596;2023-07-13T06:28:01;21.40;53.40
6738;DHT22;3406;49.902;8.596;2023-07-13T06:30:29;21.50;53.30
6738;DHT22;3406;49.902;8.596;2023-07-13T06:32:57;21.60;53.20
6738;DHT22;3406;49.902;8.596;2023-07-13T06:35:23;21.70;53.10
6738;DHT22;3406;49.902;8.596;2023-07-13T06:37:50;21.80;52.60
6738;DHT22;3406;49.902;8.596;2023-07-13T06:40:17;21.80;52.00
6738;DHT22;3406;49.902;8.596;2023-07-13T06:42:43;21.80;51.60
6738;DHT22;3406;49.902;8.596;2023-07-13T06:45:10;21.90;51.60
6738;DHT22;3406;49.902;8.596;2023-07-13T06:47:38;21.90;51.20
6738;DHT22;3406;49.902;8.596;2023-07-13T06:50:05;22.00;50.90
6738;DHT22;3406;49.902;8.596;2023-07-13T06:52:32;22.10;51.00
6738;DHT22;3406;49.902;8.596;2023-07-13T06:54:59;22.20;50.70
6738;DHT22;3406;49.902;8.596;2023-07-13T06:57:25;22.30;50.40
6738;DHT22;3406;49.902;8.596;2023-07-13T06:59:52;22.30;50.10
6738;DHT22;3406;49.902;8.596;2023-07-13T07:02:19;22.50;50.00
6738;DHT22;3406;49.902;8.596;2023-07-13T07:04:47;22.60;49.60
6738;DHT22;3406;49.902;8.596;2023-07-13T07:07:14;22.80;49.30
6738;DHT22;3406;49.902;8.596;2023-07-13T07:09:40;22.80;49.00
6738;DHT22;3406;49.902;8.596;2023-07-13T07:12:07;22.90;49.00
6738;DHT22;3406;49.902;8.596;2023-07-13T07:14:34;22.90;48.60
6738;DHT22;3406;49.902;8.596;2023-07-13T07:17:01;22.90;48.30
6738;DHT22;3406;49.902;8.596;2023-07-13T07:19:27;22.90;47.90
6738;DHT22;3406;49.902;8.596;2023-07-13T07:21:55;22.80;48.30
6738;DHT22;3406;49.902;8.596;2023-07-13T07:24:22;22.80;48.00
6738;DHT22;3406;49.902;8.596;2023-07-13T07:26:49;22.80;47.80
6738;DHT22;3406;49.902;8.596;2023-07-13T07:29:15;22.90;47.90
6738;DHT22;3406;49.902;8.596;2023-07-13T07:31:42;23.10;47.80
6738;DHT22;3406;49.902;8.596;2023-07-13T07:34:08;23.20;47.60
6738;DHT22;3406;49.902;8.596;2023-07-13T07:36:35;23.30;47.60
6738;DHT22;3406;49.902;8.596;2023-07-13T07:39:03;23.40;47.50
6738;DHT22;3406;49.902;8.596;2023-07-13T07:41:30;23.50;47.30
6738;DHT22;3406;49.902;8.596;2023-07-13T07:43:57;23.70;47.40
6738;DHT22;3406;49.902;8.596;2023-07-13T07:46:23;23.90;47.30
6738;DHT22;3406;49.902;8.596;2023-07-13T07:48:50;23.90;46.90
6738;DHT22;3406;49.902;8.596;2023-07-13T07:51:16;23.70;46.90
6738;DHT22;3406;49.902;8.596;2023-07-13T07:53:43;23.60;47.00
6738;DHT22;3406;49.902;8.596;2023-07-13T07:56:11;23.60;46.90
6738;DHT22;3406;49.902;8.596;2023-07-13T07:58:38;23.70;47.00
6738;DHT22;3406;49.902;8.596;2023-07-13T08:01:05;23.70;47.00
6738;DHT22;3406;49.902;8.596;2023-07-13T08:03:32;23.90;47.00
6738;DHT22;3406;49.902;8.596;2023-07-13T08:05:59;24.00;47.20
6738;DHT22;3406;49.902;8.596;2023-07-13T08:08:26;23.90;46.30
6738;DHT22;3406;49.902;8.596;2023-07-13T08:10:53;23.80;46.50
6738;DHT22;3406;49.902;8.596;2023-07-13T08:13:21;23.90;46.60
6738;DHT22;3406;49.902;8.596;2023-07-13T08:15:48;24.00;46.60
6738;DHT22;3406;49.902;8.596;2023-07-13T08:18:15;24.10;46.60
6738;DHT22;3406;49.902;8.596;2023-07-13T08:20:42;24.20;46.40
6738;DHT22;3406;49.902;8.596;2023-07-13T08:23:10;24.20;46.40
6738;DHT22;3406;49.902;8.596;2023-07-13T08:25:36;24.30;46.30
6738;DHT22;3406;49.902;8.596;2023-07-13T08:28:04;24.40;46.20
6738;DHT22;3406;49.902;8.596;2023-07-13T08:30:34;24.60;46.10
6738;DHT22;3406;49.902;8.596;2023-07-13T08:33:01;24.60;45.60
6738;DHT22;3406;49.902;8.596;2023-07-13T08:35:28;24.80;45.60
6738;DHT22;3406;49.902;8.596;2023-07-13T08:37:55;24.80;45.30
6738;DHT22;3406;49.902;8.596;2023-07-13T08:40:25;24.80;45.00
6738;DHT22;3406;49.902;8.596;2023-07-13T08:42:54;24.80;45.00
6738;DHT22;3406;49.902;8.596;2023-07-13T08:45:24;24.80;44.90
6738;DHT22;3406;49.902;8.596;2023-07-13T08:47:58;24.80;44.90
6738;DHT22;3406;49.902;8.596;2023-07-13T08:50:32;24.80;44.70
6738;DHT22;3406;49.902;8.596;2023-07-13T08:53:00;24.80;44.50
6738;DHT22;3406;49.902;8.596;2023-07-13T08:55:31;24.80;44.30
6738;DHT22;3406;49.902;8.596;2023-07-13T08:58:01;24.80;44.20
6738;DHT22;3406;49.902;8.596;2023-07-13T09:00:37;24.80;44.30
6738;DHT22;3406;49.902;8.596;2023-07-13T09:03:16;24.70;44.00
6738;DHT22;3406;49.902;8.596;2023-07-13T09:05:48;24.50;44.10
6738;DHT22;3406;49.902;8.596;2023-07-13T09:08:32;24.40;44.30
6738;DHT22;3406;49.902;8.596;2023-07-13T09:11:06;24.20;44.30
6738;DHT22;3406;49.902;8.596;2023-07-13T09:13:47;24.00;44.50
6738;DHT22;3406;49.902;8.596;2023-07-13T09:16:16;23.90;44.70
6738;DHT22;3406;49.902;8.596;2023-07-13T09:18:47;24.00;45.00
6738;DHT22;3406;49.902;8.596;2023-07-13T09:21:17;23.90;44.80
6738;DHT22;3406;49.902;8.596;2023-07-13T09:23:44;23.90;44.70
6738;DHT22;3406;49.902;8.596;2023-07-13T09:26:14;23.90;44.80
6738;DHT22;3406;49.902;8.596;2023-07-13T09:28:43;23.90;44.90
6738;DHT22;3406;49.902;8.596;2023-07-13T09:31:14;24.00;44.40
6738;DHT22;3406;49.902;8.596;2023-07-13T09:33:41;24.20;43.90
6738;DHT22;3406;49.902;8.596;2023-07-13T09:36:20;24.30;43.50
6738;DHT22;3406;49.902;8.596;2023-07-13T09:38:49;24.50;43.40
6738;DHT22;3406;49.902;8.596;2023-07-13T09:41:26;24.70;42.80
6738;DHT22;3406;49.902;8.596;2023-07-13T09:44:06;24.80;42.70
6738;DHT22;3406;49.902;8.596;2023-07-13T09:46:34;25.00;42.40
6738;DHT22;3406;49.902;8.596;2023-07-13T09:49:01;25.20;42.20
6738;DHT22;3406;49.902;8.596;2023-07-13T09:51:29;25.40;41.90
6738;DHT22;3406;49.902;8.596;2023-07-13T09:53:55;25.50;40.80
6738;DHT22;3406;49.902;8.596;2023-07-13T09:56:26;25.50;40.70
6738;DHT22;3406;49.902;8.596;2023-07-13T09:58:53;25.40;40.50
6738;DHT22;3406;49.902;8.596;2023-07-13T10:01:32;25.30;40.60
6738;DHT22;3406;49.902;8.596;2023-07-13T10:03:59;25.30;40.90
6738;DHT22;3406;49.902;8.596;2023-07-13T10:06:26;25.40;41.00
6738;DHT22;3406;49.902;8.596;2023-07-13T10:08:56;25.60;41.00
6738;DHT22;3406;49.902;8.596;2023-07-13T10:11:26;25.80;40.40
6738;DHT22;3406;49.902;8.596;2023-07-13T10:13:55;25.90;40.30
6738;DHT22;3406;49.902;8.596;2023-07-13T10:16:23;26.00;40.10
6738;DHT22;3406;49.902;8.596;2023-07-13T10:18:55;26.20;39.70
6738;DHT22;3406;49.902;8.596;2023-07-13T10:21:30;26.20;39.30
6738;DHT22;3406;49.902;8.596;2023-07-13T10:24:11;26.10;39.30
6738;DHT22;3406;49.902;8.596;2023-07-13T10:26:45;26.10;39.20
6738;DHT22;3406;49.902;8.596;2023-07-13T10:29:14;26.00;39.00
6738;DHT22;3406;49.902;8.596;2023-07-13T10:31:41;25.90;39.00
6738;DHT22;3406;49.902;8.596;2023-07-13T10:34:10;25.70;38.80
6738;DHT22;3406;49.902;8.596;2023-07-13T10:36:40;25.60;38.40
6738;DHT22;3406;49.902;8.596;2023-07-13T10:39:15;25.50;38.10
6738;DHT22;3406;49.902;8.596;2023-07-13T10:41:44;25.40;38.30
6738;DHT22;3406;49.902;8.596;2023-07-13T10:44:18;25.40;38.20
6738;DHT22;3406;49.902;8.596;2023-07-13T10:46:48;25.30;38.30
6738;DHT22;3406;49.902;8.596;2023-07-13T10:49:16;25.30;38.50
6738;DHT22;3406;49.902;8.596;2023-07-13T10:51:43;25.40;38.40
6738;DHT22;3406;49.902;8.596;2023-07-13T10:54:18;25.40;38.20
6738;DHT22;3406;49.902;8.596;2023-07-13T10:56:49;25.40;38.10
6738;DHT22;3406;49.902;8.596;2023-07-13T10:59:18;25.30;38.20
6738;DHT22;3406;49.902;8.596;2023-07-13T11:01:55;25.30;38.20
6738;DHT22;3406;49.902;8.596;2023-07-13T11:04:23;25.40;38.00
6738;DHT22;3406;49.902;8.596;2023-07-13T11:06:53;25.40;37.90
6738;DHT22;3406;49.902;8.596;2023-07-13T11:09:37;25.50;37.70
6738;DHT22;3406;49.902;8.596;2023-07-13T11:12:25;25.60;37.40
6738;DHT22;3406;49.902;8.596;2023-07-13T11:15:11;25.90;37.30
6738;DHT22;3406;49.902;8.596;2023-07-13T11:17:49;26.10;36.40
6738;DHT22;3406;49.902;8.596;2023-07-13T11:20:32;26.20;36.30
6738;DHT22;3406;49.902;8.596;2023-07-13T11:23:28;26.60;36.40
6738;DHT22;3406;49.902;8.596;2023-07-13T11:25:58;26.80;36.00
6738;DHT22;3406;49.902;8.596;2023-07-13T11:28:27;26.90;35.50
6738;DHT22;3406;49.902;8.596;2023-07-13T11:31:12;26.80;35.80
6738;DHT22;3406;49.902;8.596;2023-07-13T11:33:56;26.90;35.80
6738;DHT22;3406;49.902;8.596;2023-07-13T11:36:27;27.00;35.30
6738;DHT22;3406;49.902;8.596;2023-07-13T11:39:01;27.10;35.10
6738;DHT22;3406;49.902;8.596;2023-07-13T11:41:31;27.20;35.10
6738;DHT22;3406;49.902;8.596;2023-07-13T11:44:06;27.30;35.00
6738;DHT22;3406;49.902;8.596;2023-07-13T11:46:33;27.30;34.70
6738;DHT22;3406;49.902;8.596;2023-07-13T11:49:00;27.10;34.80
6738;DHT22;3406;49.902;8.596;2023-07-13T11:51:29;27.00;35.10
6738;DHT22;3406;49.902;8.596;2023-07-13T11:54:01;26.80;35.20
6738;DHT22;3406;49.902;8.596;2023-07-13T11:56:30;26.70;35.20
6738;DHT22;3406;49.902;8.596;2023-07-13T11:58:59;26.80;35.30
6738;DHT22;3406;49.902;8.596;2023-07-13T12:01:32;27.10;35.00
6738;DHT22;3406;49.902;8.596;2023-07-13T12:04:00;27.20;34.80
6738;DHT22;3406;49.902;8.596;2023-07-13T12:06:30;27.40;34.80
6738;DHT22;3406;49.902;8.596;2023-07-13T12:08:57;27.60;34.70
6738;DHT22;3406;49.902;8.596;2023-07-13T12:11:25;27.40;34.80
6738;DHT22;3406;49.902;8.596;2023-07-13T12:13:53;27.00;35.40
6738;DHT22;3406;49.902;8.596;2023-07-13T12:16:25;26.90;35.80
6738;DHT22;3406;49.902;8.596;2023-07-13T12:18:54;26.80;36.00
6738;DHT22;3406;49.902;8.596;2023-07-13T12:21:27;26.60;36.00
6738;DHT22;3406;49.902;8.596;2023-07-13T12:23:55;26.60;36.30
6738;DHT22;3406;49.902;8.596;2023-07-13T12:26:22;26.60;36.30
6738;DHT22;3406;49.902;8.596;2023-07-13T12:28:53;26.60;36.30
6738;DHT22;3406;49.902;8.596;2023-07-13T12:31:30;26.60;36.20
6738;DHT22;3406;49.902;8.596;2023-07-13T12:33:59;26.70;36.40
6738;DHT22;3406;49.902;8.596;2023-07-13T12:36:31;26.70;36.30
6738;DHT22;3406;49.902;8.596;2023-07-13T12:39:04;26.80;36.00
6738;DHT22;3406;49.902;8.596;2023-07-13T12:41:32;26.80;36.10
6738;DHT22;3406;49.902;8.596;2023-07-13T12:44:01;26.80;36.10
6738;DHT22;3406;49.902;8.596;2023-07-13T12:46:27;26.80;36.20
6738;DHT22;3406;49.902;8.596;2023-07-13T12:48:56;26.90;36.30
6738;DHT22;3406;49.902;8.596;2023-07-13T12:51:25;27.00;36.20
6738;DHT22;3406;49.902;8.596;2023-07-13T12:53:57;27.00;36.10
6738;DHT22;3406;49.902;8.596;2023-07-13T12:56:26;27.00;36.00
6738;DHT22;3406;49.902;8.596;2023-07-13T12:58:58;26.90;36.10
6738;DHT22;3406;49.902;8.596;2023-07-13T13:01:27;26.80;36.10
6738;DHT22;3406;49.902;8.596;2023-07-13T13:03:55;26.80;36.20
6738;DHT22;3406;49.902;8.596;2023-07-13T13:06:24;26.70;36.10
6738;DHT22;3406;49.902;8.596;2023-07-13T13:08:53;26.80;36.80
6738;DHT22;3406;49.902;8.596;2023-07-13T13:11:22;26.90;36.30
6738;DHT22;3406;49.902;8.596;2023-07-13T13:13:50;26.90;36.30
6738;DHT22;3406;49.902;8.596;2023-07-13T13:16:20;26.90;36.50
6738;DHT22;3406;49.902;8.596;2023-07-13T13:18:49;26.90;36.40
6738;DHT22;3406;49.902;8.596;2023-07-13T13:21:16;26.80;36.40
6738;DHT22;3406;49.902;8.596;2023-07-13T13:23:43;26.70;36.60
6738;DHT22;3406;49.902;8.596;2023-07-13T13:26:11;26.70;36.70
6738;DHT22;3406;49.902;8.596;2023-07-13T13:28:38;26.90;36.90
6738;DHT22;3406;49.902;8.596;2023-07-13T13:31:05;27.00;36.50
6738;DHT22;3406;49.902;8.596;2023-07-13T13:33:32;27.00;36.30
6738;DHT22;3406;49.902;8.596;2023-07-13T13:36:00;27.00;36.20
6738;DHT22;3406;49.902;8.596;2023-07-13T13:38:27;26.90;36.20
6738;DHT22;3406;49.902;8.596;2023-07-13T13:40:54;26.80;36.40
6738;DHT22;3406;49.902;8.596;2023-07-13T13:43:23;26.80;36.60
6738;DHT22;3406;49.902;8.596;2023-07-13T13:45:53;26.90;36.70
6738;DHT22;3406;49.902;8.596;2023-07-13T13:48:26;27.00;36.60
6738;DHT22;3406;49.902;8.596;2023-07-13T13:50:55;26.90;36.50
6738;DHT22;3406;49.902;8.596;2023-07-13T13:53:23;26.80;36.70
6738;DHT22;3406;49.902;8.596;2023-07-13T13:55:50;26.80;36.80
6738;DHT22;3406;49.902;8.596;2023-07-13T13:58:18;26.70;36.80
6738;DHT22;3406;49.902;8.596;2023-07-13T14:00:45;26.60;36.90
6738;DHT22;3406;49.902;8.596;2023-07-13T14:03:15;26.60;36.90
6738;DHT22;3406;49.902;8.596;2023-07-13T14:05:43;26.70;37.10
6738;DHT22;3406;49.902;8.596;2023-07-13T14:08:14;26.80;37.00
6738;DHT22;3406;49.902;8.596;2023-07-13T14:10:42;26.90;36.80
6738;DHT22;3406;49.902;8.596;2023-07-13T14:13:16;26.90;36.90
6738;DHT22;3406;49.902;8.596;2023-07-13T14:15:44;26.80;36.80
6738;DHT22;3406;49.902;8.596;2023-07-13T14:18:11;26.70;36.80
6738;DHT22;3406;49.902;8.596;2023-07-13T14:20:43;26.70;36.80
6738;DHT22;3406;49.902;8.596;2023-07-13T14:23:10;26.70;36.90
6738;DHT22;3406;49.902;8.596;2023-07-13T14:25:37;26.70;36.90
6738;DHT22;3406;49.902;8.596;2023-07-13T14:28:23;26.80;36.90
6738;DHT22;3406;49.902;8.596;2023-07-13T14:30:51;26.80;36.90
6738;DHT22;3406;49.902;8.596;2023-07-13T14:33:18;26.80;36.90
6738;DHT22;3406;49.902;8.596;2023-07-13T14:35:45;26.80;37.00
6738;DHT22;3406;49.902;8.596;2023-07-13T14:38:13;26.90;37.10
6738;DHT22;3406;49.902;8.596;2023-07-13T14:40:41;26.90;37.10
6738;DHT22;3406;49.902;8.596;2023-07-13T14:43:12;27.00;37.10
6738;DHT22;3406;49.902;8.596;2023-07-13T14:45:41;27.00;37.00
6738;DHT22;3406;49.902;8.596;2023-07-13T14:48:14;27.00;36.80
6738;DHT22;3406;49.902;8.596;2023-07-13T14:50:42;26.90;36.90
6738;DHT22;3406;49.902;8.596;2023-07-13T14:53:10;26.80;36.90
6738;DHT22;3406;49.902;8.596;2023-07-13T14:55:37;26.80;37.00
6738;DHT22;3406;49.902;8.596;2023-07-13T14:58:04;26.80;36.90
6738;DHT22;3406;49.902;8.596;2023-07-13T15:00:32;26.70;36.70
6738;DHT22;3406;49.902;8.596;2023-07-13T15:03:00;26.70;36.50
6738;DHT22;3406;49.902;8.596;2023-07-13T15:05:29;26.60;36.20
6738;DHT22;3406;49.902;8.596;2023-07-13T15:07:58;26.40;36.40
6738;DHT22;3406;49.902;8.596;2023-07-13T15:10:28;26.30;36.70
6738;DHT22;3406;49.902;8.596;2023-07-13T15:12:59;26.20;37.00
6738;DHT22;3406;49.902;8.596;2023-07-13T15:15:27;26.00;37.30
6738;DHT22;3406;49.902;8.596;2023-07-13T15:17:55;25.90;37.60
6738;DHT22;3406;49.902;8.596;2023-07-13T15:20:26;25.80;37.80
6738;DHT22;3406;49.902;8.596;2023-07-13T15:22:54;25.70;37.90
6738;DHT22;3406;49.902;8.596;2023-07-13T15:25:23;25.70;37.90
6738;DHT22;3406;49.902;8.596;2023-07-13T15:27:51;25.60;37.90
6738;DHT22;3406;49.902;8.596;2023-07-13T15:30:18;25.60;38.00
6738;DHT22;3406;49.902;8.596;2023-07-13T15:32:45;25.70;38.00
6738;DHT22;3406;49.902;8.596;2023-07-13T15:35:18;25.70;37.90
6738;DHT22;3406;49.902;8.596;2023-07-13T15:37:46;25.70;37.90
6738;DHT22;3406;49.902;8.596;2023-07-13T15:40:14;25.70;37.90
6738;DHT22;3406;49.902;8.596;2023-07-13T15:42:42;25.70;37.90
6738;DHT22;3406;49.902;8.596;2023-07-13T15:45:17;25.70;37.90
6738;DHT22;3406;49.902;8.596;2023-07-13T15:47:44;25.80;37.90
6738;DHT22;3406;49.902;8.596;2023-07-13T15:50:17;25.70;37.90
6738;DHT22;3406;49.902;8.596;2023-07-13T15:52:45;25.70;38.00
6738;DHT22;3406;49.902;8.596;2023-07-13T15:55:14;25.70;37.90
6738;DHT22;3406;49.902;8.596;2023-07-13T15:57:44;25.80;38.00
6738;DHT22;3406;49.902;8.596;2023-07-13T16:00:20;25.90;37.90
6738;DHT22;3406;49.902;8.596;2023-07-13T16:02:47;26.00;37.90
6738;DHT22;3406;49.902;8.596;2023-07-13T16:05:14;26.10;37.70
6738;DHT22;3406;49.902;8.596;2023-07-13T16:07:42;26.20;37.70
6738;DHT22;3406;49.902;8.596;2023-07-13T16:10:16;26.20;37.50
6738;DHT22;3406;49.902;8.596;2023-07-13T16:12:44;26.30;37.50